CSN8362 YPDN-ZGGG
Flight info
| Callsign | CSN8362 |
|---|---|
| Flight time | 5h 33m |
| Altitude | 34000 |
| Route | OCTOB A461 BONDA/N0466F360 A461 ZAM A583 AKOTA/N0461F380 A583 BIGEX A461 IDUMA IDUMA1 |
| Aircraft | B738/M-SDE2E3FGHIRWXY/LB1 |
Departure
| Time | 2026-05-06 22:21 |
|---|---|
| Airport | Darwin International Airport / RAAF Darwin (YPDN) |
Arrival
| Time | 2026-05-07 03:54 |
|---|---|
| Airport | Guangzhou Baiyun International Airport (ZGGG) |
| Time | Latitude | Longitude | Altitude | Speed | Heading |
|---|---|---|---|---|---|
| 2026-05-06 21:39 | -12.40831 | 130.87626 | 89 ft | 0 kts | 17° |
| 2026-05-06 21:40 | -12.40850 | 130.87619 | 90 ft | 0 kts | 19° |
| 2026-05-06 22:11 | -12.40854 | 130.87618 | 89 ft | 3 kts | 19° |
| 2026-05-06 22:11 | -12.40879 | 130.87608 | 95 ft | 4 kts | 26° |
| 2026-05-06 22:11 | -12.40901 | 130.87594 | 89 ft | 4 kts | 47° |
| 2026-05-06 22:11 | -12.40910 | 130.87577 | 89 ft | 4 kts | 122° |
| 2026-05-06 22:12 | -12.40908 | 130.87573 | 89 ft | 2 kts | 134° |
| 2026-05-06 22:14 | -12.40909 | 130.87574 | 89 ft | 1 kts | 134° |
| 2026-05-06 22:14 | -12.40918 | 130.87584 | 89 ft | 3 kts | 134° |
| 2026-05-06 22:14 | -12.40938 | 130.87604 | 88 ft | 5 kts | 139° |
| 2026-05-06 22:14 | -12.40950 | 130.87613 | 89 ft | 0 kts | 149° |
| 2026-05-06 22:15 | -12.40956 | 130.87613 | 89 ft | 2 kts | 179° |
| 2026-05-06 22:15 | -12.40973 | 130.87609 | 92 ft | 4 kts | 194° |
| 2026-05-06 22:15 | -12.41012 | 130.87596 | 91 ft | 8 kts | 198° |
| 2026-05-06 22:15 | -12.41081 | 130.87572 | 89 ft | 12 kts | 199° |
| 2026-05-06 22:16 | -12.41168 | 130.87541 | 89 ft | 14 kts | 199° |
| 2026-05-06 22:16 | -12.41271 | 130.87504 | 91 ft | 17 kts | 199° |
| 2026-05-06 22:16 | -12.41389 | 130.87464 | 90 ft | 16 kts | 199° |
| 2026-05-06 22:16 | -12.41474 | 130.87408 | 89 ft | 14 kts | 234° |
| 2026-05-06 22:17 | -12.41487 | 130.87315 | 93 ft | 14 kts | 283° |
| 2026-05-06 22:17 | -12.41453 | 130.87215 | 91 ft | 16 kts | 289° |
| 2026-05-06 22:17 | -12.41414 | 130.87097 | 91 ft | 19 kts | 289° |
| 2026-05-06 22:17 | -12.41365 | 130.86952 | 90 ft | 23 kts | 288° |
| 2026-05-06 22:18 | -12.41313 | 130.86800 | 90 ft | 22 kts | 289° |
| 2026-05-06 22:18 | -12.41263 | 130.86652 | 90 ft | 22 kts | 289° |
| 2026-05-06 22:18 | -12.41215 | 130.86523 | 93 ft | 16 kts | 303° |
| 2026-05-06 22:18 | -12.41133 | 130.86474 | 92 ft | 12 kts | 354° |
| 2026-05-06 22:19 | -12.41056 | 130.86492 | 92 ft | 11 kts | 20° |
| 2026-05-06 22:19 | -12.40983 | 130.86519 | 89 ft | 11 kts | 20° |
| 2026-05-06 22:19 | -12.40945 | 130.86557 | 92 ft | 6 kts | 81° |
| 2026-05-06 22:19 | -12.40960 | 130.86597 | 90 ft | 6 kts | 117° |
| 2026-05-06 22:20 | -12.40974 | 130.86637 | 90 ft | 6 kts | 109° |
| 2026-05-06 22:20 | -12.40995 | 130.86700 | 89 ft | 22 kts | 109° |
| 2026-05-06 22:20 | -12.41122 | 130.87074 | 90 ft | 89 kts | 108° |
| 2026-05-06 22:20 | -12.41388 | 130.87865 | 89 ft | 145 kts | 109° |
| 2026-05-06 22:21 | -12.41763 | 130.88963 | 324 ft | 173 kts | 111° |
| 2026-05-06 22:21 | -12.42173 | 130.90152 | 1046 ft | 170 kts | 110° |
| 2026-05-06 22:21 | -12.42517 | 130.91209 | 2112 ft | 157 kts | 110° |
| 2026-05-06 22:21 | -12.42896 | 130.92366 | 2374 ft | 185 kts | 110° |
| 2026-05-06 22:22 | -12.43326 | 130.93690 | 2552 ft | 207 kts | 109° |
| 2026-05-06 22:22 | -12.43793 | 130.95128 | 2962 ft | 219 kts | 109° |
| 2026-05-06 22:22 | -12.44300 | 130.96691 | 3256 ft | 240 kts | 109° |
| 2026-05-06 22:22 | -12.44834 | 130.98351 | 3846 ft | 249 kts | 106° |
| 2026-05-06 22:23 | -12.44979 | 131.00123 | 4497 ft | 257 kts | 83° |
| 2026-05-06 22:23 | -12.44430 | 131.01852 | 5167 ft | 263 kts | 62° |
| 2026-05-06 22:23 | -12.43258 | 131.03314 | 5826 ft | 272 kts | 40° |
| 2026-05-06 22:23 | -12.41520 | 131.04135 | 6430 ft | 284 kts | 10° |
| 2026-05-06 22:24 | -12.39539 | 131.04208 | 7101 ft | 287 kts | 0° |
| 2026-05-06 22:24 | -12.37528 | 131.04153 | 7784 ft | 289 kts | 359° |
| 2026-05-06 22:24 | -12.35509 | 131.04094 | 8460 ft | 292 kts | 359° |
| 2026-05-06 22:24 | -12.33474 | 131.04042 | 9160 ft | 293 kts | 359° |
| 2026-05-06 22:25 | -12.31471 | 131.03668 | 9796 ft | 296 kts | 335° |
| 2026-05-06 22:25 | -12.29760 | 131.02511 | 10353 ft | 300 kts | 319° |
| 2026-05-06 22:25 | -12.28276 | 131.00917 | 10479 ft | 321 kts | 300° |
| 2026-05-06 22:25 | -12.27410 | 130.98762 | 10656 ft | 337 kts | 288° |
| 2026-05-06 22:26 | -12.26661 | 130.96423 | 10823 ft | 354 kts | 288° |
| 2026-05-06 22:26 | -12.25886 | 130.93996 | 11205 ft | 362 kts | 288° |
| 2026-05-06 22:26 | -12.25080 | 130.91541 | 11732 ft | 364 kts | 289° |
| 2026-05-06 22:26 | -12.24268 | 130.89116 | 12477 ft | 361 kts | 289° |
| 2026-05-06 22:27 | -12.23360 | 130.86700 | 12946 ft | 366 kts | 298° |
| 2026-05-06 22:27 | -12.21781 | 130.84667 | 13530 ft | 367 kts | 317° |
| 2026-05-06 22:27 | -12.19644 | 130.83216 | 13955 ft | 375 kts | 336° |
| 2026-05-06 22:27 | -12.17171 | 130.82337 | 14425 ft | 377 kts | 341° |
| 2026-05-06 22:28 | -12.14658 | 130.81546 | 14907 ft | 379 kts | 341° |
| 2026-05-06 22:28 | -12.12131 | 130.80765 | 15329 ft | 382 kts | 341° |
| 2026-05-06 22:28 | -12.09610 | 130.79979 | 15750 ft | 384 kts | 341° |
| 2026-05-06 22:28 | -12.07050 | 130.79169 | 16201 ft | 386 kts | 341° |
| 2026-05-06 22:29 | -12.04482 | 130.78346 | 16619 ft | 388 kts | 340° |
| 2026-05-06 22:29 | -12.01898 | 130.77512 | 17060 ft | 390 kts | 340° |
| 2026-05-06 22:29 | -11.99299 | 130.76671 | 17447 ft | 393 kts | 340° |
| 2026-05-06 22:29 | -11.96680 | 130.75823 | 17816 ft | 396 kts | 340° |
| 2026-05-06 22:30 | -11.94046 | 130.74971 | 18226 ft | 398 kts | 340° |
| 2026-05-06 22:30 | -11.91395 | 130.74114 | 18561 ft | 400 kts | 340° |
| 2026-05-06 22:30 | -11.88732 | 130.73253 | 18894 ft | 402 kts | 340° |
| 2026-05-06 22:30 | -11.86056 | 130.72389 | 19221 ft | 404 kts | 340° |
| 2026-05-06 22:31 | -11.83361 | 130.71519 | 19543 ft | 407 kts | 340° |
| 2026-05-06 22:31 | -11.80655 | 130.70646 | 19870 ft | 409 kts | 340° |
| 2026-05-06 22:31 | -11.77937 | 130.69768 | 20181 ft | 411 kts | 340° |
| 2026-05-06 22:31 | -11.75205 | 130.68886 | 20501 ft | 413 kts | 340° |
| 2026-05-06 22:32 | -11.72457 | 130.68000 | 20817 ft | 415 kts | 340° |
| 2026-05-06 22:32 | -11.69702 | 130.67111 | 21112 ft | 417 kts | 340° |
| 2026-05-06 22:32 | -11.66927 | 130.66216 | 21405 ft | 419 kts | 340° |
| 2026-05-06 22:32 | -11.64137 | 130.65316 | 21698 ft | 421 kts | 341° |
| 2026-05-06 22:33 | -11.61339 | 130.64414 | 21974 ft | 423 kts | 341° |
| 2026-05-06 22:33 | -11.58522 | 130.63505 | 22263 ft | 425 kts | 341° |
| 2026-05-06 22:33 | -11.55692 | 130.62593 | 22543 ft | 427 kts | 341° |
| 2026-05-06 22:33 | -11.52847 | 130.61676 | 22827 ft | 429 kts | 341° |
| 2026-05-06 22:34 | -11.49988 | 130.60755 | 23082 ft | 432 kts | 341° |
| 2026-05-06 22:34 | -11.47117 | 130.59830 | 23339 ft | 434 kts | 341° |
| 2026-05-06 22:34 | -11.44235 | 130.58902 | 23606 ft | 435 kts | 341° |
| 2026-05-06 22:34 | -11.41341 | 130.57970 | 23824 ft | 437 kts | 341° |
| 2026-05-06 22:35 | -11.38435 | 130.57035 | 24016 ft | 439 kts | 341° |
| 2026-05-06 22:35 | -11.35523 | 130.56097 | 24216 ft | 440 kts | 341° |
| 2026-05-06 22:35 | -11.32596 | 130.55155 | 24413 ft | 442 kts | 341° |
| 2026-05-06 22:35 | -11.29660 | 130.54211 | 24613 ft | 443 kts | 340° |
| 2026-05-06 22:36 | -11.26708 | 130.53261 | 24805 ft | 445 kts | 340° |
| 2026-05-06 22:36 | -11.23788 | 130.52322 | 24986 ft | 447 kts | 340° |
| 2026-05-06 22:36 | -11.20818 | 130.51367 | 25175 ft | 448 kts | 340° |
| 2026-05-06 22:36 | -11.17840 | 130.50410 | 25372 ft | 449 kts | 340° |
| 2026-05-06 22:37 | -11.14854 | 130.49450 | 25556 ft | 451 kts | 340° |
| 2026-05-06 22:37 | -11.11869 | 130.48491 | 25728 ft | 452 kts | 340° |
| 2026-05-06 22:37 | -11.08853 | 130.47523 | 25903 ft | 454 kts | 340° |
| 2026-05-06 22:37 | -11.05835 | 130.46554 | 26082 ft | 455 kts | 340° |
| 2026-05-06 22:38 | -11.02808 | 130.45582 | 26248 ft | 457 kts | 340° |
| 2026-05-06 22:38 | -10.99775 | 130.44608 | 26420 ft | 458 kts | 340° |
| 2026-05-06 22:38 | -10.96736 | 130.43633 | 26588 ft | 459 kts | 340° |
| 2026-05-06 22:38 | -10.93689 | 130.42654 | 26749 ft | 460 kts | 340° |
| 2026-05-06 22:39 | -10.90634 | 130.41674 | 26913 ft | 461 kts | 340° |
| 2026-05-06 22:39 | -10.87565 | 130.40689 | 27068 ft | 463 kts | 340° |
| 2026-05-06 22:39 | -10.84490 | 130.39703 | 27227 ft | 464 kts | 340° |
| 2026-05-06 22:39 | -10.81405 | 130.38714 | 27372 ft | 465 kts | 340° |
| 2026-05-06 22:40 | -10.78313 | 130.37722 | 27505 ft | 466 kts | 340° |
| 2026-05-06 22:40 | -10.75219 | 130.36731 | 27666 ft | 467 kts | 340° |
| 2026-05-06 22:40 | -10.72113 | 130.35735 | 27800 ft | 468 kts | 340° |
| 2026-05-06 22:40 | -10.69039 | 130.34750 | 27927 ft | 470 kts | 340° |
| 2026-05-06 22:41 | -10.62795 | 130.32750 | 28179 ft | 472 kts | 340° |
| 2026-05-06 22:41 | -10.59651 | 130.31744 | 28314 ft | 473 kts | 340° |
| 2026-05-06 22:41 | -10.56509 | 130.30738 | 28446 ft | 474 kts | 340° |
| 2026-05-06 22:42 | -10.53363 | 130.29731 | 28552 ft | 475 kts | 340° |
| 2026-05-06 22:42 | -10.50209 | 130.28721 | 28698 ft | 476 kts | 340° |
| 2026-05-06 22:42 | -10.47050 | 130.27711 | 28880 ft | 475 kts | 340° |
| 2026-05-06 22:42 | -10.43898 | 130.26703 | 29094 ft | 474 kts | 340° |
| 2026-05-06 22:43 | -10.40753 | 130.25698 | 29265 ft | 474 kts | 340° |
| 2026-05-06 22:43 | -10.37609 | 130.24692 | 29422 ft | 474 kts | 340° |
| 2026-05-06 22:43 | -10.34452 | 130.23683 | 29595 ft | 474 kts | 340° |
| 2026-05-06 22:43 | -10.31314 | 130.22680 | 29788 ft | 474 kts | 340° |
| 2026-05-06 22:44 | -10.28169 | 130.21675 | 29982 ft | 473 kts | 340° |
| 2026-05-06 22:44 | -10.25024 | 130.20671 | 30127 ft | 473 kts | 340° |
| 2026-05-06 22:44 | -10.21885 | 130.19668 | 30291 ft | 473 kts | 340° |
| 2026-05-06 22:44 | -10.18745 | 130.18666 | 30470 ft | 472 kts | 340° |
| 2026-05-06 22:45 | -10.15618 | 130.17667 | 30640 ft | 471 kts | 340° |
| 2026-05-06 22:45 | -10.12487 | 130.16668 | 30823 ft | 471 kts | 340° |
| 2026-05-06 22:45 | -10.09365 | 130.15672 | 30998 ft | 470 kts | 340° |
| 2026-05-06 22:45 | -10.06246 | 130.14677 | 31172 ft | 470 kts | 340° |
| 2026-05-06 22:46 | -10.03169 | 130.13695 | 31364 ft | 469 kts | 340° |
| 2026-05-06 22:46 | -10.00062 | 130.12704 | 31546 ft | 468 kts | 340° |
| 2026-05-06 22:46 | -9.96955 | 130.11713 | 31723 ft | 468 kts | 340° |
| 2026-05-06 22:46 | -9.93850 | 130.10723 | 31882 ft | 468 kts | 340° |
| 2026-05-06 22:47 | -9.90750 | 130.09735 | 32067 ft | 467 kts | 340° |
| 2026-05-06 22:47 | -9.87650 | 130.08747 | 32259 ft | 466 kts | 340° |
| 2026-05-06 22:47 | -9.84556 | 130.07761 | 32450 ft | 466 kts | 340° |
| 2026-05-06 22:47 | -9.81459 | 130.06775 | 32632 ft | 465 kts | 340° |
| 2026-05-06 22:48 | -9.78368 | 130.05790 | 32792 ft | 465 kts | 340° |
| 2026-05-06 22:48 | -9.75275 | 130.04805 | 32954 ft | 465 kts | 340° |
| 2026-05-06 22:48 | -9.72191 | 130.03823 | 33148 ft | 465 kts | 340° |
| 2026-05-06 22:48 | -9.70143 | 130.03171 | 33284 ft | 464 kts | 340° |
| 2026-05-06 22:49 | -9.67060 | 130.02189 | 33466 ft | 464 kts | 340° |
| 2026-05-06 22:49 | -9.63982 | 130.01210 | 33627 ft | 464 kts | 340° |
| 2026-05-06 22:49 | -9.60906 | 130.00231 | 33814 ft | 463 kts | 340° |
| 2026-05-06 22:49 | -9.57837 | 129.99255 | 33937 ft | 462 kts | 340° |
| 2026-05-06 22:50 | -9.53763 | 129.97958 | 33936 ft | 464 kts | 340° |
| 2026-05-06 22:50 | -9.47590 | 129.95996 | 33936 ft | 464 kts | 340° |
| 2026-05-06 22:51 | -9.42429 | 129.94355 | 33936 ft | 464 kts | 340° |
| 2026-05-06 22:51 | -9.36269 | 129.92398 | 33937 ft | 464 kts | 340° |
| 2026-05-06 22:52 | -9.30152 | 129.90452 | 33936 ft | 464 kts | 340° |
| 2026-05-06 22:52 | -9.23991 | 129.88492 | 33934 ft | 464 kts | 340° |
| 2026-05-06 22:53 | -9.17835 | 129.86535 | 33929 ft | 464 kts | 340° |
| 2026-05-06 22:53 | -9.11662 | 129.84573 | 33934 ft | 465 kts | 340° |
| 2026-05-06 22:54 | -9.05488 | 129.82611 | 33929 ft | 466 kts | 340° |
| 2026-05-06 22:54 | -8.99297 | 129.80645 | 33935 ft | 466 kts | 340° |
| 2026-05-06 22:55 | -8.93103 | 129.78679 | 33927 ft | 467 kts | 340° |
| 2026-05-06 22:55 | -8.86898 | 129.76709 | 33931 ft | 468 kts | 340° |
| 2026-05-06 22:56 | -8.80682 | 129.74738 | 33926 ft | 468 kts | 340° |
| 2026-05-06 22:56 | -8.74456 | 129.72763 | 33936 ft | 469 kts | 340° |
| 2026-05-06 22:57 | -8.68295 | 129.70810 | 33918 ft | 458 kts | 340° |
| 2026-05-06 22:57 | -8.62289 | 129.68907 | 33916 ft | 451 kts | 340° |
| 2026-05-06 22:58 | -8.56298 | 129.67008 | 33926 ft | 451 kts | 340° |
| 2026-05-06 22:58 | -8.50322 | 129.65147 | 33930 ft | 454 kts | 341° |
| 2026-05-06 22:59 | -8.44242 | 129.63314 | 33935 ft | 458 kts | 341° |
| 2026-05-06 22:59 | -8.38115 | 129.61471 | 33932 ft | 461 kts | 341° |
| 2026-05-06 23:00 | -8.31954 | 129.59611 | 33927 ft | 462 kts | 341° |
| 2026-05-06 23:00 | -8.25788 | 129.57746 | 33918 ft | 462 kts | 341° |
| 2026-05-06 23:01 | -8.19626 | 129.55881 | 33927 ft | 462 kts | 341° |
| 2026-05-06 23:01 | -8.13469 | 129.54018 | 33923 ft | 463 kts | 341° |
| 2026-05-06 23:02 | -8.07296 | 129.52151 | 33923 ft | 463 kts | 341° |
| 2026-05-06 23:02 | -8.01128 | 129.50285 | 33920 ft | 462 kts | 342° |
| 2026-05-06 23:03 | -7.94982 | 129.48429 | 33915 ft | 459 kts | 342° |
| 2026-05-06 23:03 | -7.88896 | 129.46590 | 33918 ft | 454 kts | 342° |
| 2026-05-06 23:04 | -7.82864 | 129.44768 | 33922 ft | 452 kts | 342° |
| 2026-05-06 23:04 | -7.76841 | 129.42949 | 33919 ft | 451 kts | 342° |
| 2026-05-06 23:05 | -7.70833 | 129.41135 | 33918 ft | 451 kts | 342° |
| 2026-05-06 23:05 | -7.64859 | 129.39332 | 33921 ft | 452 kts | 342° |
| 2026-05-06 23:06 | -7.58822 | 129.37510 | 33922 ft | 454 kts | 342° |
| 2026-05-06 23:06 | -7.52760 | 129.35682 | 33921 ft | 455 kts | 342° |
| 2026-05-06 23:07 | -7.46669 | 129.33845 | 33919 ft | 457 kts | 342° |
| 2026-05-06 23:07 | -7.40565 | 129.32006 | 33918 ft | 459 kts | 342° |
| 2026-05-06 23:08 | -7.34429 | 129.30157 | 33921 ft | 460 kts | 342° |
| 2026-05-06 23:08 | -7.28290 | 129.28306 | 33921 ft | 461 kts | 342° |
| 2026-05-06 23:09 | -7.22150 | 129.26458 | 33916 ft | 460 kts | 342° |
| 2026-05-06 23:09 | -7.16063 | 129.24627 | 33916 ft | 459 kts | 342° |
| 2026-05-06 23:10 | -7.09980 | 129.22795 | 33911 ft | 454 kts | 342° |
| 2026-05-06 23:10 | -7.03954 | 129.20981 | 33901 ft | 449 kts | 342° |
| 2026-05-06 23:11 | -6.97972 | 129.19181 | 33917 ft | 449 kts | 342° |
| 2026-05-06 23:11 | -6.91955 | 129.17371 | 33914 ft | 453 kts | 342° |
| 2026-05-06 23:12 | -6.85890 | 129.15548 | 33922 ft | 456 kts | 342° |
| 2026-05-06 23:12 | -6.79779 | 129.13710 | 33922 ft | 460 kts | 342° |
| 2026-05-06 23:13 | -6.73626 | 129.11861 | 33918 ft | 463 kts | 342° |
| 2026-05-06 23:13 | -6.67487 | 129.10017 | 33915 ft | 464 kts | 342° |
| 2026-05-06 23:14 | -6.61297 | 129.08158 | 33910 ft | 464 kts | 342° |
| 2026-05-06 23:14 | -6.55133 | 129.06307 | 33910 ft | 461 kts | 342° |
| 2026-05-06 23:15 | -6.49016 | 129.04471 | 33908 ft | 456 kts | 342° |
| 2026-05-06 23:15 | -6.42955 | 129.02652 | 33910 ft | 453 kts | 343° |
| 2026-05-06 23:16 | -6.36898 | 129.00834 | 33927 ft | 455 kts | 342° |
| 2026-05-06 23:16 | -6.30806 | 128.99006 | 33922 ft | 459 kts | 343° |
| 2026-05-06 23:17 | -6.24657 | 128.97162 | 33923 ft | 462 kts | 343° |
| 2026-05-06 23:17 | -6.18483 | 128.95311 | 33915 ft | 464 kts | 343° |
| 2026-05-06 23:18 | -6.12297 | 128.93457 | 33912 ft | 464 kts | 343° |
| 2026-05-06 23:18 | -6.06121 | 128.91606 | 33917 ft | 463 kts | 343° |
| 2026-05-06 23:19 | -5.99943 | 128.89755 | 33909 ft | 463 kts | 343° |
| 2026-05-06 23:19 | -5.93831 | 128.87924 | 33903 ft | 459 kts | 343° |
| 2026-05-06 23:20 | -5.87752 | 128.86104 | 33906 ft | 453 kts | 343° |
| 2026-05-06 23:20 | -5.81737 | 128.84303 | 33916 ft | 451 kts | 343° |
| 2026-05-06 23:21 | -5.75698 | 128.82495 | 33924 ft | 455 kts | 343° |
| 2026-05-06 23:21 | -5.69598 | 128.80669 | 33922 ft | 459 kts | 343° |
| 2026-05-06 23:22 | -5.63448 | 128.78829 | 33921 ft | 462 kts | 343° |
| 2026-05-06 23:22 | -5.57266 | 128.76980 | 33918 ft | 465 kts | 343° |
| 2026-05-06 23:23 | -5.51088 | 128.75132 | 33911 ft | 466 kts | 343° |
| 2026-05-06 23:23 | -5.44881 | 128.73276 | 33908 ft | 464 kts | 343° |
| 2026-05-06 23:24 | -5.38713 | 128.71432 | 33899 ft | 459 kts | 343° |
| 2026-05-06 23:24 | -5.32611 | 128.69608 | 33908 ft | 455 kts | 343° |
| 2026-05-06 23:25 | -5.26553 | 128.67798 | 33908 ft | 453 kts | 343° |
| 2026-05-06 23:25 | -5.20499 | 128.65989 | 33918 ft | 456 kts | 344° |
| 2026-05-06 23:26 | -5.14383 | 128.64163 | 33915 ft | 460 kts | 344° |
| 2026-05-06 23:26 | -5.08213 | 128.62320 | 33918 ft | 464 kts | 344° |
| 2026-05-06 23:27 | -5.01995 | 128.60463 | 33909 ft | 468 kts | 344° |
| 2026-05-06 23:27 | -4.95785 | 128.58610 | 33901 ft | 468 kts | 344° |
| 2026-05-06 23:28 | -4.89566 | 128.56754 | 33896 ft | 464 kts | 344° |
| 2026-05-06 23:28 | -4.83418 | 128.54919 | 33899 ft | 459 kts | 344° |
| 2026-05-06 23:29 | -4.77302 | 128.53093 | 33907 ft | 458 kts | 344° |
| 2026-05-06 23:29 | -4.71201 | 128.51274 | 33915 ft | 459 kts | 344° |
| 2026-05-06 23:30 | -4.65033 | 128.49435 | 33909 ft | 464 kts | 345° |
| 2026-05-06 23:30 | -4.58817 | 128.47581 | 33906 ft | 468 kts | 345° |
| 2026-05-06 23:31 | -4.52541 | 128.45711 | 33907 ft | 471 kts | 345° |
| 2026-05-06 23:31 | -4.46287 | 128.43846 | 33905 ft | 473 kts | 345° |
| 2026-05-06 23:32 | -4.39976 | 128.41965 | 33904 ft | 473 kts | 345° |
| 2026-05-06 23:32 | -4.33653 | 128.40080 | 33907 ft | 473 kts | 345° |
| 2026-05-06 23:33 | -4.27353 | 128.38204 | 33904 ft | 472 kts | 345° |
| 2026-05-06 23:33 | -4.21065 | 128.36331 | 33901 ft | 470 kts | 345° |
| 2026-05-06 23:34 | -4.14801 | 128.34465 | 33899 ft | 468 kts | 345° |
| 2026-05-06 23:34 | -4.08568 | 128.32609 | 33903 ft | 467 kts | 345° |
| 2026-05-06 23:35 | -4.02348 | 128.30757 | 33904 ft | 466 kts | 345° |
| 2026-05-06 23:35 | -3.96177 | 128.28920 | 33901 ft | 465 kts | 345° |
| 2026-05-06 23:36 | -3.89959 | 128.27069 | 33893 ft | 465 kts | 345° |
| 2026-05-06 23:36 | -3.83747 | 128.25220 | 33889 ft | 466 kts | 344° |
| 2026-05-06 23:37 | -3.77527 | 128.23370 | 33889 ft | 467 kts | 344° |
| 2026-05-06 23:37 | -3.72340 | 128.21826 | 33886 ft | 468 kts | 344° |
| 2026-05-06 23:38 | -3.66098 | 128.19968 | 33889 ft | 468 kts | 344° |
| 2026-05-06 23:38 | -3.59949 | 128.17801 | 33877 ft | 470 kts | 332° |
| 2026-05-06 23:39 | -3.54287 | 128.14525 | 33884 ft | 471 kts | 329° |
| 2026-05-06 23:39 | -3.48668 | 128.11146 | 33893 ft | 472 kts | 329° |
| 2026-05-06 23:40 | -3.43011 | 128.07782 | 33892 ft | 473 kts | 329° |
| 2026-05-06 23:40 | -3.37363 | 128.04462 | 33900 ft | 474 kts | 329° |
| 2026-05-06 23:41 | -3.31618 | 128.01099 | 33900 ft | 476 kts | 329° |
| 2026-05-06 23:41 | -3.25938 | 127.97776 | 33898 ft | 477 kts | 330° |
| 2026-05-06 23:42 | -3.20197 | 127.94417 | 33891 ft | 478 kts | 330° |
| 2026-05-06 23:42 | -3.14449 | 127.91052 | 33891 ft | 479 kts | 330° |
| 2026-05-06 23:43 | -3.08690 | 127.87682 | 33894 ft | 479 kts | 330° |
| 2026-05-06 23:43 | -3.02939 | 127.84316 | 33898 ft | 479 kts | 330° |
| 2026-05-06 23:44 | -2.97179 | 127.80946 | 33899 ft | 479 kts | 330° |
| 2026-05-06 23:44 | -2.91428 | 127.77582 | 33901 ft | 478 kts | 330° |
| 2026-05-06 23:45 | -2.85694 | 127.74227 | 33895 ft | 477 kts | 330° |
| 2026-05-06 23:45 | -2.79963 | 127.70875 | 33895 ft | 476 kts | 330° |
| 2026-05-06 23:46 | -2.74283 | 127.67553 | 33897 ft | 475 kts | 330° |
| 2026-05-06 23:46 | -2.68579 | 127.64218 | 33896 ft | 474 kts | 330° |
| 2026-05-06 23:47 | -2.62884 | 127.60888 | 33893 ft | 474 kts | 330° |
| 2026-05-06 23:47 | -2.57193 | 127.57561 | 33892 ft | 473 kts | 330° |
| 2026-05-06 23:48 | -2.51507 | 127.54236 | 33891 ft | 473 kts | 330° |
| 2026-05-06 23:48 | -2.45819 | 127.50912 | 33893 ft | 474 kts | 330° |
| 2026-05-06 23:49 | -2.40127 | 127.47585 | 33893 ft | 474 kts | 330° |
| 2026-05-06 23:49 | -2.34432 | 127.44257 | 33892 ft | 475 kts | 330° |
| 2026-05-06 23:50 | -2.28721 | 127.40919 | 33897 ft | 475 kts | 330° |
| 2026-05-06 23:50 | -2.20179 | 127.35929 | 33894 ft | 476 kts | 330° |
| 2026-05-06 23:51 | -2.14454 | 127.32584 | 33891 ft | 477 kts | 330° |
| 2026-05-06 23:51 | -2.08721 | 127.29235 | 33887 ft | 477 kts | 330° |
| 2026-05-06 23:52 | -2.02982 | 127.25883 | 33887 ft | 477 kts | 330° |
| 2026-05-06 23:52 | -1.97256 | 127.22538 | 33892 ft | 477 kts | 330° |
| 2026-05-06 23:53 | -1.91516 | 127.19186 | 33890 ft | 477 kts | 330° |
| 2026-05-06 23:53 | -1.85789 | 127.15841 | 33891 ft | 476 kts | 330° |
| 2026-05-06 23:54 | -1.80074 | 127.12504 | 33890 ft | 476 kts | 330° |
| 2026-05-06 23:54 | -1.74358 | 127.09166 | 33890 ft | 475 kts | 330° |
| 2026-05-06 23:55 | -1.68651 | 127.05834 | 33889 ft | 475 kts | 330° |
| 2026-05-06 23:55 | -1.62937 | 127.02499 | 33892 ft | 475 kts | 330° |
| 2026-05-06 23:56 | -1.57272 | 126.99192 | 33889 ft | 474 kts | 329° |
| 2026-05-06 23:56 | -1.51572 | 126.95865 | 33886 ft | 474 kts | 329° |
| 2026-05-06 23:57 | -1.45877 | 126.92540 | 33887 ft | 474 kts | 329° |
| 2026-05-06 23:57 | -1.40183 | 126.89217 | 33887 ft | 474 kts | 329° |
| 2026-05-06 23:58 | -1.34485 | 126.85892 | 33888 ft | 474 kts | 329° |
| 2026-05-06 23:58 | -1.28786 | 126.82565 | 33890 ft | 474 kts | 329° |
| 2026-05-06 23:59 | -1.23095 | 126.79244 | 33888 ft | 474 kts | 329° |
| 2026-05-06 23:59 | -1.17399 | 126.75920 | 33893 ft | 474 kts | 329° |
| 2026-05-07 00:00 | -1.11701 | 126.72596 | 33894 ft | 474 kts | 329° |
| 2026-05-07 00:00 | -1.05999 | 126.69269 | 33893 ft | 475 kts | 329° |
| 2026-05-07 00:01 | -1.00292 | 126.65939 | 33888 ft | 475 kts | 329° |
| 2026-05-07 00:01 | -0.94589 | 126.62611 | 33890 ft | 475 kts | 329° |
| 2026-05-07 00:02 | -0.88881 | 126.59281 | 33891 ft | 475 kts | 329° |
| 2026-05-07 00:02 | -0.83175 | 126.55953 | 33891 ft | 476 kts | 329° |
| 2026-05-07 00:03 | -0.77483 | 126.52632 | 33892 ft | 476 kts | 329° |
| 2026-05-07 00:03 | -0.71731 | 126.49277 | 33891 ft | 476 kts | 329° |
| 2026-05-07 00:04 | -0.66009 | 126.45938 | 33894 ft | 477 kts | 329° |
| 2026-05-07 00:04 | -0.60316 | 126.42618 | 33886 ft | 477 kts | 329° |
| 2026-05-07 00:05 | -0.54587 | 126.39276 | 33887 ft | 477 kts | 329° |
| 2026-05-07 00:05 | -0.48849 | 126.35929 | 33884 ft | 477 kts | 329° |
| 2026-05-07 00:06 | -0.43108 | 126.32580 | 33887 ft | 478 kts | 329° |
| 2026-05-07 00:06 | -0.37357 | 126.29226 | 33887 ft | 478 kts | 329° |
| 2026-05-07 00:07 | -0.31619 | 126.25879 | 33885 ft | 478 kts | 329° |
| 2026-05-07 00:07 | -0.25872 | 126.22527 | 33884 ft | 478 kts | 329° |
| 2026-05-07 00:08 | -0.20126 | 126.19176 | 33883 ft | 478 kts | 329° |
| 2026-05-07 00:08 | -0.14420 | 126.15848 | 33888 ft | 478 kts | 329° |
| 2026-05-07 00:09 | -0.08673 | 126.12496 | 33887 ft | 478 kts | 329° |
| 2026-05-07 00:09 | -0.02934 | 126.09149 | 33883 ft | 478 kts | 329° |
| 2026-05-07 00:10 | 0.02810 | 126.05799 | 33886 ft | 478 kts | 329° |
| 2026-05-07 00:10 | 0.08555 | 126.02448 | 33885 ft | 478 kts | 329° |
| 2026-05-07 00:11 | 0.14299 | 125.99098 | 33884 ft | 478 kts | 329° |
| 2026-05-07 00:11 | 0.20042 | 125.95749 | 33884 ft | 478 kts | 329° |
| 2026-05-07 00:12 | 0.25782 | 125.92400 | 33886 ft | 478 kts | 329° |
| 2026-05-07 00:12 | 0.31522 | 125.89053 | 33887 ft | 478 kts | 329° |
| 2026-05-07 00:13 | 0.37263 | 125.85704 | 33887 ft | 477 kts | 329° |
| 2026-05-07 00:13 | 0.43000 | 125.82358 | 33883 ft | 477 kts | 329° |
| 2026-05-07 00:14 | 0.48733 | 125.79014 | 33882 ft | 477 kts | 329° |
| 2026-05-07 00:14 | 0.54458 | 125.75674 | 33880 ft | 477 kts | 329° |
| 2026-05-07 00:15 | 0.60189 | 125.72331 | 33887 ft | 477 kts | 329° |
| 2026-05-07 00:15 | 0.65917 | 125.68990 | 33883 ft | 476 kts | 329° |
| 2026-05-07 00:16 | 0.71645 | 125.65649 | 33883 ft | 476 kts | 329° |
| 2026-05-07 00:16 | 0.77324 | 125.62336 | 33885 ft | 476 kts | 329° |
| 2026-05-07 00:17 | 0.83044 | 125.58999 | 33886 ft | 476 kts | 329° |
| 2026-05-07 00:17 | 0.88768 | 125.55660 | 33885 ft | 476 kts | 329° |
| 2026-05-07 00:18 | 0.94481 | 125.52327 | 33883 ft | 475 kts | 329° |
| 2026-05-07 00:18 | 1.00206 | 125.48986 | 33884 ft | 475 kts | 329° |
| 2026-05-07 00:19 | 1.05911 | 125.45657 | 33892 ft | 475 kts | 330° |
| 2026-05-07 00:19 | 1.11612 | 125.42331 | 33892 ft | 475 kts | 330° |
| 2026-05-07 00:20 | 1.17319 | 125.39001 | 33901 ft | 474 kts | 330° |
| 2026-05-07 00:20 | 1.23012 | 125.35679 | 33907 ft | 474 kts | 330° |
| 2026-05-07 00:21 | 1.28702 | 125.32358 | 33910 ft | 473 kts | 330° |
| 2026-05-07 00:21 | 1.34381 | 125.29044 | 33918 ft | 473 kts | 330° |
| 2026-05-07 00:22 | 1.40021 | 125.25752 | 33919 ft | 472 kts | 330° |
| 2026-05-07 00:22 | 1.45692 | 125.22442 | 33931 ft | 472 kts | 330° |
| 2026-05-07 00:23 | 1.51364 | 125.19131 | 33942 ft | 472 kts | 330° |
| 2026-05-07 00:23 | 1.57036 | 125.15820 | 33948 ft | 471 kts | 330° |
| 2026-05-07 00:24 | 1.62696 | 125.12516 | 33943 ft | 471 kts | 330° |
| 2026-05-07 00:24 | 1.68362 | 125.09208 | 33948 ft | 471 kts | 330° |
| 2026-05-07 00:25 | 1.73063 | 125.06463 | 33939 ft | 471 kts | 330° |
| 2026-05-07 00:25 | 1.78725 | 125.03157 | 33928 ft | 471 kts | 330° |
| 2026-05-07 00:26 | 1.84393 | 124.99847 | 33916 ft | 471 kts | 330° |
| 2026-05-07 00:26 | 1.90050 | 124.96543 | 33894 ft | 471 kts | 330° |
| 2026-05-07 00:27 | 1.95710 | 124.93237 | 33888 ft | 471 kts | 330° |
| 2026-05-07 00:27 | 2.01369 | 124.89931 | 33882 ft | 471 kts | 330° |
| 2026-05-07 00:28 | 2.07033 | 124.86613 | 33912 ft | 475 kts | 330° |
| 2026-05-07 00:28 | 2.09882 | 124.84926 | 34017 ft | 477 kts | 330° |
| 2026-05-07 00:28 | 2.12732 | 124.83231 | 34220 ft | 475 kts | 330° |
| 2026-05-07 00:29 | 2.15530 | 124.81565 | 34478 ft | 473 kts | 330° |
| 2026-05-07 00:29 | 2.18391 | 124.79862 | 34715 ft | 471 kts | 330° |
| 2026-05-07 00:30 | 2.26816 | 124.74853 | 35234 ft | 471 kts | 330° |
| 2026-05-07 00:30 | 2.29631 | 124.73181 | 35420 ft | 470 kts | 330° |
| 2026-05-07 00:30 | 2.32442 | 124.71511 | 35591 ft | 470 kts | 330° |
| 2026-05-07 00:30 | 2.35259 | 124.69838 | 35765 ft | 469 kts | 330° |
| 2026-05-07 00:31 | 2.38063 | 124.68172 | 35875 ft | 469 kts | 330° |
| 2026-05-07 00:31 | 2.40880 | 124.66499 | 35870 ft | 471 kts | 330° |
| 2026-05-07 00:31 | 2.46513 | 124.63152 | 35883 ft | 471 kts | 330° |
| 2026-05-07 00:32 | 2.52144 | 124.59806 | 35882 ft | 470 kts | 330° |
| 2026-05-07 00:32 | 2.57753 | 124.56472 | 35881 ft | 469 kts | 330° |
| 2026-05-07 00:33 | 2.63319 | 124.53165 | 35883 ft | 468 kts | 330° |
| 2026-05-07 00:33 | 2.68912 | 124.49840 | 35880 ft | 467 kts | 330° |
| 2026-05-07 00:34 | 2.74498 | 124.46520 | 35879 ft | 467 kts | 330° |
| 2026-05-07 00:34 | 2.80077 | 124.43203 | 35882 ft | 467 kts | 330° |
| 2026-05-07 00:35 | 2.85660 | 124.39884 | 35885 ft | 467 kts | 330° |
| 2026-05-07 00:35 | 2.91246 | 124.36562 | 35885 ft | 467 kts | 330° |
| 2026-05-07 00:36 | 2.96837 | 124.33237 | 35882 ft | 467 kts | 330° |
| 2026-05-07 00:36 | 3.02421 | 124.29915 | 35885 ft | 468 kts | 330° |
| 2026-05-07 00:37 | 3.08026 | 124.26581 | 35883 ft | 468 kts | 330° |
| 2026-05-07 00:37 | 3.13627 | 124.23249 | 35883 ft | 469 kts | 330° |
| 2026-05-07 00:38 | 3.19203 | 124.19931 | 35882 ft | 469 kts | 330° |
| 2026-05-07 00:38 | 3.24811 | 124.16594 | 35881 ft | 469 kts | 330° |
| 2026-05-07 00:39 | 3.30429 | 124.13251 | 35884 ft | 469 kts | 329° |
| 2026-05-07 00:39 | 3.36044 | 124.09908 | 35884 ft | 469 kts | 330° |
| 2026-05-07 00:40 | 3.41655 | 124.06568 | 35887 ft | 469 kts | 329° |
| 2026-05-07 00:40 | 3.47261 | 124.03230 | 35886 ft | 469 kts | 329° |
| 2026-05-07 00:41 | 3.52873 | 123.99888 | 35885 ft | 468 kts | 329° |
| 2026-05-07 00:41 | 3.58467 | 123.96556 | 35884 ft | 468 kts | 329° |
| 2026-05-07 00:42 | 3.64063 | 123.93222 | 35887 ft | 468 kts | 329° |
| 2026-05-07 00:42 | 3.69652 | 123.89893 | 35887 ft | 467 kts | 329° |
| 2026-05-07 00:43 | 3.75237 | 123.86565 | 35887 ft | 467 kts | 329° |
| 2026-05-07 00:43 | 3.80785 | 123.83258 | 35888 ft | 466 kts | 329° |
| 2026-05-07 00:44 | 3.86362 | 123.79934 | 35888 ft | 466 kts | 329° |
| 2026-05-07 00:44 | 3.91935 | 123.76611 | 35887 ft | 466 kts | 329° |
| 2026-05-07 00:45 | 3.97508 | 123.73288 | 35886 ft | 466 kts | 329° |
| 2026-05-07 00:45 | 4.03100 | 123.69997 | 35887 ft | 466 kts | 330° |
| 2026-05-07 00:46 | 4.08760 | 123.66806 | 35886 ft | 466 kts | 331° |
| 2026-05-07 00:46 | 4.14428 | 123.63629 | 35886 ft | 467 kts | 331° |
| 2026-05-07 00:47 | 4.20089 | 123.60439 | 35887 ft | 467 kts | 330° |
| 2026-05-07 00:47 | 4.25748 | 123.57238 | 35887 ft | 467 kts | 330° |
| 2026-05-07 00:48 | 4.31375 | 123.54052 | 35888 ft | 467 kts | 330° |
| 2026-05-07 00:48 | 4.37042 | 123.50842 | 35888 ft | 468 kts | 330° |
| 2026-05-07 00:49 | 4.42704 | 123.47635 | 35886 ft | 467 kts | 330° |
| 2026-05-07 00:49 | 4.48368 | 123.44427 | 35884 ft | 467 kts | 330° |
| 2026-05-07 00:50 | 4.54026 | 123.41222 | 35885 ft | 467 kts | 330° |
| 2026-05-07 00:50 | 4.59688 | 123.38014 | 35883 ft | 467 kts | 330° |
| 2026-05-07 00:51 | 4.65343 | 123.34809 | 35885 ft | 466 kts | 330° |
| 2026-05-07 00:51 | 4.70986 | 123.31610 | 35884 ft | 465 kts | 330° |
| 2026-05-07 00:52 | 4.76585 | 123.28436 | 35886 ft | 465 kts | 330° |
| 2026-05-07 00:52 | 4.82219 | 123.25241 | 35884 ft | 464 kts | 330° |
| 2026-05-07 00:53 | 4.87841 | 123.22053 | 35889 ft | 464 kts | 330° |
| 2026-05-07 00:53 | 4.93459 | 123.18866 | 35888 ft | 464 kts | 330° |
| 2026-05-07 00:54 | 4.99069 | 123.15683 | 35884 ft | 463 kts | 330° |
| 2026-05-07 00:54 | 5.04677 | 123.12501 | 35886 ft | 463 kts | 330° |
| 2026-05-07 00:55 | 5.10274 | 123.09324 | 35890 ft | 463 kts | 330° |
| 2026-05-07 00:55 | 5.15879 | 123.06142 | 35888 ft | 462 kts | 330° |
| 2026-05-07 00:56 | 5.21478 | 123.02962 | 35889 ft | 462 kts | 330° |
| 2026-05-07 00:56 | 5.27075 | 122.99784 | 35890 ft | 462 kts | 330° |
| 2026-05-07 00:57 | 5.32669 | 122.96606 | 35892 ft | 462 kts | 330° |
| 2026-05-07 00:57 | 5.38275 | 122.93421 | 35891 ft | 462 kts | 330° |
| 2026-05-07 00:58 | 5.43836 | 122.90261 | 35891 ft | 462 kts | 330° |
| 2026-05-07 00:58 | 5.49440 | 122.87075 | 35891 ft | 462 kts | 330° |
| 2026-05-07 00:59 | 5.57833 | 122.82303 | 35890 ft | 462 kts | 330° |
| 2026-05-07 01:00 | 5.63437 | 122.79115 | 35891 ft | 463 kts | 330° |
| 2026-05-07 01:00 | 5.69046 | 122.75925 | 35894 ft | 463 kts | 330° |
| 2026-05-07 01:01 | 5.74652 | 122.72734 | 35891 ft | 463 kts | 330° |
| 2026-05-07 01:01 | 5.80261 | 122.69543 | 35892 ft | 463 kts | 330° |
| 2026-05-07 01:02 | 5.85867 | 122.66351 | 35891 ft | 463 kts | 330° |
| 2026-05-07 01:02 | 5.91441 | 122.63178 | 35890 ft | 463 kts | 330° |
| 2026-05-07 01:03 | 5.97042 | 122.59987 | 35885 ft | 463 kts | 330° |
| 2026-05-07 01:03 | 6.02640 | 122.56799 | 35890 ft | 463 kts | 330° |
| 2026-05-07 01:04 | 6.08242 | 122.53606 | 35894 ft | 463 kts | 330° |
| 2026-05-07 01:04 | 6.13841 | 122.50415 | 35884 ft | 463 kts | 330° |
| 2026-05-07 01:05 | 6.19446 | 122.47220 | 35886 ft | 463 kts | 330° |
| 2026-05-07 01:05 | 6.25039 | 122.44030 | 35885 ft | 463 kts | 330° |
| 2026-05-07 01:06 | 6.30638 | 122.40837 | 35882 ft | 463 kts | 330° |
| 2026-05-07 01:06 | 6.36240 | 122.37640 | 35884 ft | 462 kts | 330° |
| 2026-05-07 01:07 | 6.41831 | 122.34450 | 35885 ft | 462 kts | 330° |
| 2026-05-07 01:07 | 6.47425 | 122.31256 | 35883 ft | 462 kts | 330° |
| 2026-05-07 01:08 | 6.53017 | 122.28062 | 35883 ft | 462 kts | 330° |
| 2026-05-07 01:08 | 6.58617 | 122.24865 | 35882 ft | 462 kts | 330° |
| 2026-05-07 01:09 | 6.64217 | 122.21668 | 35890 ft | 463 kts | 330° |
| 2026-05-07 01:09 | 6.69817 | 122.18470 | 35903 ft | 463 kts | 330° |
| 2026-05-07 01:10 | 6.75375 | 122.15294 | 35913 ft | 463 kts | 330° |
| 2026-05-07 01:10 | 6.80976 | 122.12092 | 35916 ft | 463 kts | 330° |
| 2026-05-07 01:11 | 6.86573 | 122.08891 | 35917 ft | 463 kts | 330° |
| 2026-05-07 01:11 | 6.92174 | 122.05690 | 35922 ft | 463 kts | 330° |
| 2026-05-07 01:12 | 6.97912 | 122.02740 | 35918 ft | 463 kts | 334° |
| 2026-05-07 01:12 | 7.02754 | 122.00423 | 35914 ft | 463 kts | 334° |
| 2026-05-07 01:13 | 7.09542 | 121.97145 | 35912 ft | 463 kts | 334° |
| 2026-05-07 01:13 | 7.14364 | 121.94784 | 35904 ft | 463 kts | 333° |
| 2026-05-07 01:14 | 7.20149 | 121.91940 | 35893 ft | 463 kts | 333° |
| 2026-05-07 01:14 | 7.25930 | 121.89100 | 35880 ft | 462 kts | 333° |
| 2026-05-07 01:15 | 7.31706 | 121.86264 | 35882 ft | 461 kts | 334° |
| 2026-05-07 01:15 | 7.37471 | 121.83431 | 35882 ft | 460 kts | 334° |
| 2026-05-07 01:16 | 7.43220 | 121.80605 | 35878 ft | 460 kts | 334° |
| 2026-05-07 01:16 | 7.48960 | 121.77781 | 35879 ft | 459 kts | 334° |
| 2026-05-07 01:17 | 7.54696 | 121.74959 | 35880 ft | 458 kts | 334° |
| 2026-05-07 01:17 | 7.60423 | 121.72140 | 35880 ft | 458 kts | 334° |
| 2026-05-07 01:18 | 7.66147 | 121.69322 | 35883 ft | 458 kts | 334° |
| 2026-05-07 01:18 | 7.71839 | 121.66518 | 35882 ft | 458 kts | 334° |
| 2026-05-07 01:19 | 7.77566 | 121.63697 | 35883 ft | 458 kts | 334° |
| 2026-05-07 01:19 | 7.83305 | 121.60869 | 35886 ft | 459 kts | 334° |
| 2026-05-07 01:20 | 7.89042 | 121.58041 | 35883 ft | 459 kts | 334° |
| 2026-05-07 01:20 | 7.94790 | 121.55206 | 35882 ft | 459 kts | 334° |
| 2026-05-07 01:21 | 8.00532 | 121.52374 | 35885 ft | 460 kts | 334° |
| 2026-05-07 01:21 | 8.06285 | 121.49535 | 35886 ft | 460 kts | 334° |
| 2026-05-07 01:22 | 8.12038 | 121.46696 | 35886 ft | 460 kts | 334° |
| 2026-05-07 01:22 | 8.17795 | 121.43853 | 35884 ft | 461 kts | 334° |
| 2026-05-07 01:23 | 8.23554 | 121.41009 | 35884 ft | 461 kts | 334° |
| 2026-05-07 01:23 | 8.29273 | 121.38184 | 35888 ft | 461 kts | 334° |
| 2026-05-07 01:24 | 8.35029 | 121.35339 | 35885 ft | 461 kts | 334° |
| 2026-05-07 01:24 | 8.40781 | 121.32495 | 35881 ft | 460 kts | 334° |
| 2026-05-07 01:25 | 8.46531 | 121.29651 | 35881 ft | 460 kts | 333° |
| 2026-05-07 01:25 | 8.52283 | 121.26806 | 35882 ft | 460 kts | 333° |
| 2026-05-07 01:26 | 8.58029 | 121.23962 | 35885 ft | 460 kts | 333° |
| 2026-05-07 01:26 | 8.63768 | 121.21121 | 35886 ft | 460 kts | 333° |
| 2026-05-07 01:27 | 8.69512 | 121.18276 | 35884 ft | 459 kts | 333° |
| 2026-05-07 01:27 | 8.75257 | 121.15431 | 35883 ft | 459 kts | 333° |
| 2026-05-07 01:28 | 8.80991 | 121.12589 | 35884 ft | 459 kts | 333° |
| 2026-05-07 01:28 | 8.86735 | 121.09742 | 35886 ft | 460 kts | 333° |
| 2026-05-07 01:29 | 8.92446 | 121.06909 | 35885 ft | 460 kts | 333° |
| 2026-05-07 01:29 | 8.98196 | 121.04057 | 35884 ft | 460 kts | 333° |
| 2026-05-07 01:30 | 9.03947 | 121.01203 | 35887 ft | 461 kts | 333° |
| 2026-05-07 01:30 | 9.09703 | 120.98345 | 35885 ft | 461 kts | 333° |
| 2026-05-07 01:31 | 9.15466 | 120.95484 | 35886 ft | 461 kts | 333° |
| 2026-05-07 01:31 | 9.21223 | 120.92624 | 35889 ft | 462 kts | 333° |
| 2026-05-07 01:32 | 9.26999 | 120.89753 | 35887 ft | 462 kts | 333° |
| 2026-05-07 01:32 | 9.32770 | 120.86884 | 35889 ft | 462 kts | 333° |
| 2026-05-07 01:33 | 9.38545 | 120.84012 | 35888 ft | 463 kts | 333° |
| 2026-05-07 01:33 | 9.44320 | 120.81138 | 35887 ft | 463 kts | 333° |
| 2026-05-07 01:34 | 9.50102 | 120.78260 | 35889 ft | 463 kts | 333° |
| 2026-05-07 01:34 | 9.55885 | 120.75380 | 35889 ft | 463 kts | 333° |
| 2026-05-07 01:35 | 9.61664 | 120.72501 | 35888 ft | 463 kts | 333° |
| 2026-05-07 01:35 | 9.67445 | 120.69620 | 35889 ft | 463 kts | 333° |
| 2026-05-07 01:36 | 9.73222 | 120.66740 | 35891 ft | 463 kts | 333° |
| 2026-05-07 01:36 | 9.78999 | 120.63855 | 35891 ft | 462 kts | 333° |
| 2026-05-07 01:37 | 9.84773 | 120.60964 | 35892 ft | 462 kts | 333° |
| 2026-05-07 01:37 | 9.90497 | 120.58098 | 35893 ft | 462 kts | 333° |
| 2026-05-07 01:38 | 9.96258 | 120.55213 | 35893 ft | 462 kts | 333° |
| 2026-05-07 01:38 | 10.02021 | 120.52325 | 35892 ft | 462 kts | 333° |
| 2026-05-07 01:39 | 10.07780 | 120.49438 | 35892 ft | 461 kts | 333° |
| 2026-05-07 01:39 | 10.13532 | 120.46554 | 35890 ft | 461 kts | 333° |
| 2026-05-07 01:40 | 10.19288 | 120.43665 | 35894 ft | 461 kts | 333° |
| 2026-05-07 01:40 | 10.25038 | 120.40780 | 35894 ft | 461 kts | 333° |
| 2026-05-07 01:41 | 10.30791 | 120.37894 | 35891 ft | 461 kts | 333° |
| 2026-05-07 01:41 | 10.36543 | 120.35008 | 35894 ft | 461 kts | 333° |
| 2026-05-07 01:42 | 10.42289 | 120.32121 | 35893 ft | 461 kts | 332° |
| 2026-05-07 01:42 | 10.48028 | 120.29238 | 35894 ft | 460 kts | 332° |
| 2026-05-07 01:43 | 10.53771 | 120.26351 | 35897 ft | 460 kts | 332° |
| 2026-05-07 01:43 | 10.59504 | 120.23467 | 35895 ft | 460 kts | 332° |
| 2026-05-07 01:44 | 10.65236 | 120.20584 | 35896 ft | 460 kts | 332° |
| 2026-05-07 01:44 | 10.70971 | 120.17697 | 35896 ft | 459 kts | 332° |
| 2026-05-07 01:45 | 10.76665 | 120.14830 | 35891 ft | 459 kts | 332° |
| 2026-05-07 01:45 | 10.82397 | 120.11942 | 35897 ft | 459 kts | 332° |
| 2026-05-07 01:46 | 10.88120 | 120.09057 | 35896 ft | 459 kts | 332° |
| 2026-05-07 01:46 | 10.93847 | 120.06169 | 35896 ft | 459 kts | 332° |
| 2026-05-07 01:47 | 10.99565 | 120.03285 | 35896 ft | 459 kts | 332° |
| 2026-05-07 01:47 | 11.05289 | 120.00395 | 35899 ft | 459 kts | 332° |
| 2026-05-07 01:48 | 11.11010 | 119.97500 | 35900 ft | 459 kts | 332° |
| 2026-05-07 01:48 | 11.16723 | 119.94605 | 35901 ft | 459 kts | 332° |
| 2026-05-07 01:49 | 11.22442 | 119.91706 | 35903 ft | 459 kts | 332° |
| 2026-05-07 01:49 | 11.28156 | 119.88809 | 35903 ft | 459 kts | 332° |
| 2026-05-07 01:50 | 11.33868 | 119.85911 | 35903 ft | 459 kts | 332° |
| 2026-05-07 01:50 | 11.39592 | 119.83007 | 35903 ft | 459 kts | 332° |
| 2026-05-07 01:51 | 11.45320 | 119.80099 | 35897 ft | 460 kts | 332° |
| 2026-05-07 01:51 | 11.51044 | 119.77192 | 35900 ft | 460 kts | 332° |
| 2026-05-07 01:52 | 11.56774 | 119.74279 | 35901 ft | 460 kts | 332° |
| 2026-05-07 01:52 | 11.62465 | 119.71385 | 35901 ft | 460 kts | 332° |
| 2026-05-07 01:53 | 11.68188 | 119.68474 | 35901 ft | 460 kts | 332° |
| 2026-05-07 01:53 | 11.73909 | 119.65567 | 35899 ft | 459 kts | 332° |
| 2026-05-07 01:54 | 11.79631 | 119.62665 | 35898 ft | 459 kts | 332° |
| 2026-05-07 01:54 | 11.85350 | 119.59761 | 35897 ft | 459 kts | 332° |
| 2026-05-07 01:55 | 11.91074 | 119.56853 | 35898 ft | 459 kts | 332° |
| 2026-05-07 01:55 | 11.96796 | 119.53944 | 35898 ft | 459 kts | 332° |
| 2026-05-07 01:56 | 12.02512 | 119.51037 | 35903 ft | 459 kts | 332° |
| 2026-05-07 01:56 | 12.08232 | 119.48126 | 35905 ft | 459 kts | 332° |
| 2026-05-07 01:57 | 12.13943 | 119.45218 | 35901 ft | 459 kts | 332° |
| 2026-05-07 01:57 | 12.19660 | 119.42306 | 35890 ft | 459 kts | 332° |
| 2026-05-07 01:58 | 12.25366 | 119.39398 | 35900 ft | 459 kts | 332° |
| 2026-05-07 01:58 | 12.30118 | 119.36975 | 35903 ft | 458 kts | 332° |
| 2026-05-07 01:59 | 12.35825 | 119.34065 | 35899 ft | 458 kts | 332° |
| 2026-05-07 01:59 | 12.42460 | 119.30678 | 35895 ft | 458 kts | 332° |
| 2026-05-07 02:00 | 12.48168 | 119.27764 | 35899 ft | 458 kts | 332° |
| 2026-05-07 02:00 | 12.52948 | 119.25322 | 35903 ft | 458 kts | 332° |
| 2026-05-07 02:01 | 12.58654 | 119.22405 | 35898 ft | 458 kts | 332° |
| 2026-05-07 02:01 | 12.64366 | 119.19485 | 35898 ft | 458 kts | 332° |
| 2026-05-07 02:02 | 12.70025 | 119.16589 | 35895 ft | 458 kts | 332° |
| 2026-05-07 02:02 | 12.75730 | 119.13669 | 35899 ft | 458 kts | 332° |
| 2026-05-07 02:03 | 12.81425 | 119.10752 | 35890 ft | 458 kts | 332° |
| 2026-05-07 02:03 | 12.87118 | 119.07835 | 35906 ft | 457 kts | 332° |
| 2026-05-07 02:04 | 12.92809 | 119.04917 | 35908 ft | 457 kts | 332° |
| 2026-05-07 02:04 | 12.98494 | 119.02000 | 35904 ft | 457 kts | 332° |
| 2026-05-07 02:05 | 13.04179 | 118.99084 | 35902 ft | 457 kts | 332° |
| 2026-05-07 02:05 | 13.09866 | 118.96168 | 35900 ft | 456 kts | 332° |
| 2026-05-07 02:06 | 13.15546 | 118.93255 | 35904 ft | 456 kts | 332° |
| 2026-05-07 02:06 | 13.21220 | 118.90342 | 35902 ft | 456 kts | 332° |
| 2026-05-07 02:07 | 13.26891 | 118.87428 | 35912 ft | 456 kts | 332° |
| 2026-05-07 02:07 | 13.35362 | 118.83073 | 35911 ft | 455 kts | 332° |
| 2026-05-07 02:08 | 13.41028 | 118.80158 | 35907 ft | 455 kts | 332° |
| 2026-05-07 02:08 | 13.46690 | 118.77244 | 35905 ft | 455 kts | 332° |
| 2026-05-07 02:09 | 13.52335 | 118.74336 | 35914 ft | 455 kts | 332° |
| 2026-05-07 02:09 | 13.57994 | 118.71420 | 35908 ft | 454 kts | 332° |
| 2026-05-07 02:10 | 13.63648 | 118.68508 | 35903 ft | 454 kts | 332° |
| 2026-05-07 02:10 | 13.69306 | 118.65595 | 35909 ft | 454 kts | 332° |
| 2026-05-07 02:11 | 13.74958 | 118.62682 | 35909 ft | 454 kts | 332° |
| 2026-05-07 02:11 | 13.80572 | 118.59787 | 35908 ft | 454 kts | 332° |
| 2026-05-07 02:12 | 13.86219 | 118.56873 | 35908 ft | 454 kts | 332° |
| 2026-05-07 02:12 | 13.91878 | 118.53952 | 35909 ft | 454 kts | 332° |
| 2026-05-07 02:13 | 13.97530 | 118.51031 | 35914 ft | 454 kts | 332° |
| 2026-05-07 02:13 | 14.03184 | 118.48108 | 35918 ft | 454 kts | 332° |
| 2026-05-07 02:14 | 14.08838 | 118.45184 | 35916 ft | 455 kts | 332° |
| 2026-05-07 02:14 | 14.14493 | 118.42258 | 35912 ft | 455 kts | 332° |
| 2026-05-07 02:15 | 14.20152 | 118.39327 | 35909 ft | 455 kts | 332° |
| 2026-05-07 02:15 | 14.25805 | 118.36398 | 35908 ft | 455 kts | 332° |
| 2026-05-07 02:16 | 14.31426 | 118.33484 | 35916 ft | 455 kts | 332° |
| 2026-05-07 02:16 | 14.37082 | 118.30550 | 35915 ft | 455 kts | 332° |
| 2026-05-07 02:17 | 14.42742 | 118.27610 | 35915 ft | 455 kts | 332° |
| 2026-05-07 02:17 | 14.48405 | 118.24665 | 35909 ft | 456 kts | 332° |
| 2026-05-07 02:18 | 14.54066 | 118.21720 | 35904 ft | 456 kts | 332° |
| 2026-05-07 02:18 | 14.59728 | 118.18773 | 35908 ft | 456 kts | 332° |
| 2026-05-07 02:19 | 14.65392 | 118.15823 | 35918 ft | 456 kts | 332° |
| 2026-05-07 02:19 | 14.71054 | 118.12872 | 35909 ft | 456 kts | 332° |
| 2026-05-07 02:20 | 14.76715 | 118.09920 | 35909 ft | 456 kts | 332° |
| 2026-05-07 02:20 | 14.82376 | 118.06967 | 35914 ft | 455 kts | 332° |
| 2026-05-07 02:21 | 14.88031 | 118.04015 | 35909 ft | 455 kts | 332° |
| 2026-05-07 02:21 | 14.93648 | 118.01081 | 35921 ft | 455 kts | 332° |
| 2026-05-07 02:22 | 14.99289 | 117.98132 | 35920 ft | 454 kts | 332° |
| 2026-05-07 02:22 | 15.04929 | 117.95182 | 35914 ft | 454 kts | 332° |
| 2026-05-07 02:23 | 15.10569 | 117.92231 | 35912 ft | 454 kts | 332° |
| 2026-05-07 02:23 | 15.16206 | 117.89280 | 35920 ft | 454 kts | 332° |
| 2026-05-07 02:24 | 15.21842 | 117.86327 | 35920 ft | 454 kts | 332° |
| 2026-05-07 02:24 | 15.27471 | 117.83376 | 35920 ft | 453 kts | 332° |
| 2026-05-07 02:25 | 15.33101 | 117.80422 | 35915 ft | 453 kts | 332° |
| 2026-05-07 02:25 | 15.38726 | 117.77470 | 35919 ft | 453 kts | 332° |
| 2026-05-07 02:26 | 15.44356 | 117.74513 | 35920 ft | 453 kts | 332° |
| 2026-05-07 02:26 | 15.49979 | 117.71558 | 35917 ft | 453 kts | 332° |
| 2026-05-07 02:27 | 15.55603 | 117.68601 | 35925 ft | 453 kts | 332° |
| 2026-05-07 02:27 | 15.61234 | 117.65638 | 35921 ft | 453 kts | 332° |
| 2026-05-07 02:28 | 15.66821 | 117.62697 | 35922 ft | 453 kts | 332° |
| 2026-05-07 02:28 | 15.72448 | 117.59732 | 35921 ft | 453 kts | 332° |
| 2026-05-07 02:29 | 15.78076 | 117.56765 | 35924 ft | 453 kts | 332° |
| 2026-05-07 02:29 | 15.83698 | 117.53800 | 35924 ft | 453 kts | 332° |
| 2026-05-07 02:30 | 15.89322 | 117.50832 | 35919 ft | 453 kts | 332° |
| 2026-05-07 02:30 | 15.94943 | 117.47863 | 35922 ft | 453 kts | 332° |
| 2026-05-07 02:31 | 16.00559 | 117.44895 | 35922 ft | 453 kts | 332° |
| 2026-05-07 02:31 | 16.06171 | 117.41927 | 35925 ft | 452 kts | 332° |
| 2026-05-07 02:32 | 16.11780 | 117.38959 | 35921 ft | 452 kts | 332° |
| 2026-05-07 02:32 | 16.17379 | 117.35994 | 35919 ft | 451 kts | 332° |
| 2026-05-07 02:33 | 16.22979 | 117.33027 | 35921 ft | 451 kts | 332° |
| 2026-05-07 02:33 | 16.28563 | 117.30066 | 35923 ft | 451 kts | 332° |
| 2026-05-07 02:34 | 16.34111 | 117.27123 | 35925 ft | 450 kts | 332° |
| 2026-05-07 02:34 | 16.39683 | 117.24164 | 35924 ft | 450 kts | 332° |
| 2026-05-07 02:35 | 16.45266 | 117.21198 | 35921 ft | 450 kts | 332° |
| 2026-05-07 02:35 | 16.50835 | 117.18239 | 35928 ft | 449 kts | 332° |
| 2026-05-07 02:36 | 16.56409 | 117.15275 | 35927 ft | 449 kts | 332° |
| 2026-05-07 02:36 | 16.61975 | 117.12313 | 35929 ft | 449 kts | 332° |
| 2026-05-07 02:37 | 16.67540 | 117.09349 | 35928 ft | 449 kts | 332° |
| 2026-05-07 02:37 | 16.73099 | 117.06386 | 35924 ft | 449 kts | 332° |
| 2026-05-07 02:38 | 16.78661 | 117.03419 | 35930 ft | 449 kts | 332° |
| 2026-05-07 02:38 | 16.84222 | 117.00451 | 35930 ft | 449 kts | 332° |
| 2026-05-07 02:39 | 16.89741 | 116.97504 | 35930 ft | 448 kts | 332° |
| 2026-05-07 02:39 | 16.95295 | 116.94535 | 35931 ft | 448 kts | 332° |
| 2026-05-07 02:40 | 17.00848 | 116.91566 | 35930 ft | 448 kts | 332° |
| 2026-05-07 02:40 | 17.06397 | 116.88596 | 35930 ft | 448 kts | 332° |
| 2026-05-07 02:41 | 17.11942 | 116.85627 | 35928 ft | 448 kts | 332° |
| 2026-05-07 02:41 | 17.17491 | 116.82654 | 35929 ft | 448 kts | 332° |
| 2026-05-07 02:42 | 17.23034 | 116.79681 | 35927 ft | 447 kts | 332° |
| 2026-05-07 02:42 | 17.28569 | 116.76711 | 35931 ft | 447 kts | 332° |
| 2026-05-07 02:43 | 17.34112 | 116.73734 | 35933 ft | 447 kts | 332° |
| 2026-05-07 02:43 | 17.39641 | 116.70763 | 35931 ft | 447 kts | 332° |
| 2026-05-07 02:44 | 17.45164 | 116.67794 | 35937 ft | 446 kts | 332° |
| 2026-05-07 02:44 | 17.50650 | 116.64842 | 35934 ft | 446 kts | 332° |
| 2026-05-07 02:45 | 17.56171 | 116.61869 | 35931 ft | 446 kts | 332° |
| 2026-05-07 02:45 | 17.61687 | 116.58897 | 35930 ft | 445 kts | 332° |
| 2026-05-07 02:46 | 17.67197 | 116.55925 | 35934 ft | 445 kts | 332° |
| 2026-05-07 02:46 | 17.72705 | 116.52953 | 35934 ft | 445 kts | 332° |
| 2026-05-07 02:47 | 17.78209 | 116.49981 | 35933 ft | 445 kts | 332° |
| 2026-05-07 02:47 | 17.82785 | 116.47510 | 35934 ft | 445 kts | 332° |
| 2026-05-07 02:48 | 17.88289 | 116.44536 | 35936 ft | 445 kts | 332° |
| 2026-05-07 02:48 | 17.93789 | 116.41561 | 35932 ft | 444 kts | 332° |
| 2026-05-07 02:49 | 17.99286 | 116.38585 | 35936 ft | 444 kts | 332° |
| 2026-05-07 02:49 | 18.04776 | 116.35611 | 35935 ft | 444 kts | 332° |
| 2026-05-07 02:50 | 18.10268 | 116.32634 | 35936 ft | 444 kts | 332° |
| 2026-05-07 02:50 | 18.15760 | 116.29654 | 35936 ft | 444 kts | 332° |
| 2026-05-07 02:51 | 18.21212 | 116.26694 | 35938 ft | 444 kts | 332° |
| 2026-05-07 02:51 | 18.26700 | 116.23712 | 35936 ft | 443 kts | 332° |
| 2026-05-07 02:52 | 18.32183 | 116.20732 | 35936 ft | 443 kts | 332° |
| 2026-05-07 02:52 | 18.37660 | 116.17752 | 35939 ft | 443 kts | 332° |
| 2026-05-07 02:53 | 18.43133 | 116.14772 | 35942 ft | 443 kts | 332° |
| 2026-05-07 02:53 | 18.48598 | 116.11794 | 35940 ft | 442 kts | 332° |
| 2026-05-07 02:54 | 18.54063 | 116.08814 | 35939 ft | 442 kts | 331° |
| 2026-05-07 02:54 | 18.59533 | 116.05829 | 35941 ft | 442 kts | 331° |
| 2026-05-07 02:55 | 18.64986 | 116.02852 | 35941 ft | 441 kts | 331° |
| 2026-05-07 02:55 | 18.70444 | 115.99869 | 35955 ft | 443 kts | 331° |
| 2026-05-07 02:56 | 18.73188 | 115.98368 | 36093 ft | 444 kts | 331° |
| 2026-05-07 02:56 | 18.75927 | 115.96871 | 36334 ft | 443 kts | 331° |
| 2026-05-07 02:56 | 18.78658 | 115.95376 | 36614 ft | 441 kts | 331° |
| 2026-05-07 02:56 | 18.81376 | 115.93889 | 36876 ft | 439 kts | 331° |
| 2026-05-07 02:57 | 18.84085 | 115.92405 | 37077 ft | 439 kts | 331° |
| 2026-05-07 02:57 | 18.86804 | 115.90916 | 37251 ft | 439 kts | 331° |
| 2026-05-07 02:57 | 18.89512 | 115.89432 | 37433 ft | 439 kts | 331° |
| 2026-05-07 02:57 | 18.92188 | 115.87964 | 37645 ft | 438 kts | 331° |
| 2026-05-07 02:58 | 18.94929 | 115.86461 | 37857 ft | 437 kts | 331° |
| 2026-05-07 02:58 | 18.97621 | 115.84984 | 37933 ft | 437 kts | 331° |
| 2026-05-07 02:58 | 19.03010 | 115.82029 | 37947 ft | 439 kts | 331° |
| 2026-05-07 02:59 | 19.08437 | 115.79055 | 37936 ft | 438 kts | 331° |
| 2026-05-07 02:59 | 19.13845 | 115.76087 | 37942 ft | 437 kts | 331° |
| 2026-05-07 03:00 | 19.19236 | 115.73126 | 37938 ft | 437 kts | 331° |
| 2026-05-07 03:00 | 19.24623 | 115.70164 | 37950 ft | 436 kts | 331° |
| 2026-05-07 03:01 | 19.30002 | 115.67205 | 37941 ft | 435 kts | 331° |
| 2026-05-07 03:01 | 19.35372 | 115.64248 | 37943 ft | 435 kts | 331° |
| 2026-05-07 03:02 | 19.40738 | 115.61292 | 37957 ft | 434 kts | 331° |
| 2026-05-07 03:02 | 19.46071 | 115.58351 | 37944 ft | 434 kts | 331° |
| 2026-05-07 03:03 | 19.51427 | 115.55396 | 37955 ft | 434 kts | 331° |
| 2026-05-07 03:03 | 19.56787 | 115.52435 | 37953 ft | 434 kts | 331° |
| 2026-05-07 03:04 | 19.62144 | 115.49475 | 37950 ft | 434 kts | 331° |
| 2026-05-07 03:04 | 19.67508 | 115.46509 | 37952 ft | 435 kts | 331° |
| 2026-05-07 03:05 | 19.72871 | 115.43540 | 37956 ft | 435 kts | 331° |
| 2026-05-07 03:05 | 19.78235 | 115.40569 | 37953 ft | 435 kts | 331° |
| 2026-05-07 03:06 | 19.83610 | 115.37589 | 37951 ft | 435 kts | 330° |
| 2026-05-07 03:06 | 19.88983 | 115.34608 | 37953 ft | 435 kts | 330° |
| 2026-05-07 03:07 | 19.94357 | 115.31625 | 37961 ft | 435 kts | 330° |
| 2026-05-07 03:07 | 19.99721 | 115.28644 | 37960 ft | 435 kts | 330° |
| 2026-05-07 03:08 | 20.05052 | 115.25680 | 37960 ft | 435 kts | 330° |
| 2026-05-07 03:08 | 20.10414 | 115.22697 | 37956 ft | 435 kts | 330° |
| 2026-05-07 03:09 | 20.15771 | 115.19713 | 37962 ft | 434 kts | 330° |
| 2026-05-07 03:09 | 20.21121 | 115.16731 | 37958 ft | 434 kts | 330° |
| 2026-05-07 03:10 | 20.26469 | 115.13748 | 37962 ft | 434 kts | 330° |
| 2026-05-07 03:10 | 20.31808 | 115.10768 | 37961 ft | 433 kts | 330° |
| 2026-05-07 03:11 | 20.37148 | 115.07785 | 37960 ft | 433 kts | 330° |
| 2026-05-07 03:11 | 20.42482 | 115.04802 | 37964 ft | 432 kts | 330° |
| 2026-05-07 03:12 | 20.47814 | 115.01819 | 37970 ft | 432 kts | 330° |
| 2026-05-07 03:12 | 20.53137 | 114.98838 | 37963 ft | 432 kts | 330° |
| 2026-05-07 03:13 | 20.58449 | 114.95861 | 37966 ft | 432 kts | 330° |
| 2026-05-07 03:13 | 20.63769 | 114.92878 | 37966 ft | 431 kts | 330° |
| 2026-05-07 03:14 | 20.69051 | 114.89913 | 37964 ft | 431 kts | 330° |
| 2026-05-07 03:15 | 20.77016 | 114.85437 | 37966 ft | 431 kts | 330° |
| 2026-05-07 03:15 | 20.82324 | 114.82452 | 37964 ft | 431 kts | 330° |
| 2026-05-07 03:16 | 20.87636 | 114.79462 | 37965 ft | 431 kts | 330° |
| 2026-05-07 03:16 | 20.92950 | 114.76468 | 37965 ft | 431 kts | 330° |
| 2026-05-07 03:17 | 20.98259 | 114.73475 | 37968 ft | 431 kts | 330° |
| 2026-05-07 03:17 | 21.03565 | 114.70481 | 37967 ft | 431 kts | 330° |
| 2026-05-07 03:18 | 21.08869 | 114.67486 | 37970 ft | 431 kts | 330° |
| 2026-05-07 03:18 | 21.14172 | 114.64489 | 37968 ft | 431 kts | 330° |
| 2026-05-07 03:19 | 21.19466 | 114.61494 | 37972 ft | 430 kts | 330° |
| 2026-05-07 03:19 | 21.24756 | 114.58500 | 37973 ft | 430 kts | 330° |
| 2026-05-07 03:20 | 21.30043 | 114.55504 | 37974 ft | 430 kts | 330° |
| 2026-05-07 03:20 | 21.35289 | 114.52530 | 37978 ft | 429 kts | 330° |
| 2026-05-07 03:21 | 21.40578 | 114.49528 | 37975 ft | 429 kts | 330° |
| 2026-05-07 03:21 | 21.45851 | 114.46533 | 37976 ft | 429 kts | 330° |
| 2026-05-07 03:22 | 21.51123 | 114.43537 | 37977 ft | 428 kts | 330° |
| 2026-05-07 03:22 | 21.56391 | 114.40540 | 37977 ft | 428 kts | 330° |
| 2026-05-07 03:23 | 21.61651 | 114.37545 | 37977 ft | 428 kts | 330° |
| 2026-05-07 03:23 | 21.66907 | 114.34550 | 37974 ft | 427 kts | 330° |
| 2026-05-07 03:24 | 21.72133 | 114.31569 | 37974 ft | 427 kts | 330° |
| 2026-05-07 03:24 | 21.77384 | 114.28572 | 37978 ft | 427 kts | 330° |
| 2026-05-07 03:25 | 21.82633 | 114.25573 | 37978 ft | 427 kts | 330° |
| 2026-05-07 03:25 | 21.87887 | 114.22569 | 37984 ft | 427 kts | 330° |
| 2026-05-07 03:26 | 21.93132 | 114.19568 | 37983 ft | 427 kts | 330° |
| 2026-05-07 03:26 | 21.98350 | 114.16579 | 37979 ft | 427 kts | 330° |
| 2026-05-07 03:27 | 22.03635 | 114.13549 | 37304 ft | 436 kts | 330° |
| 2026-05-07 03:27 | 22.06301 | 114.12020 | 36823 ft | 431 kts | 330° |
| 2026-05-07 03:27 | 22.08954 | 114.10497 | 36098 ft | 433 kts | 330° |
| 2026-05-07 03:27 | 22.11616 | 114.08969 | 35471 ft | 434 kts | 330° |
| 2026-05-07 03:28 | 22.14283 | 114.07437 | 34834 ft | 434 kts | 330° |
| 2026-05-07 03:28 | 22.16952 | 114.05904 | 34219 ft | 435 kts | 330° |
| 2026-05-07 03:28 | 22.19748 | 114.04618 | 33549 ft | 439 kts | 343° |
| 2026-05-07 03:28 | 22.22756 | 114.04092 | 33093 ft | 439 kts | 354° |
| 2026-05-07 03:29 | 22.25801 | 114.04189 | 32611 ft | 440 kts | 5° |
| 2026-05-07 03:29 | 22.28779 | 114.04969 | 32165 ft | 440 kts | 13° |
| 2026-05-07 03:29 | 22.31694 | 114.05940 | 31698 ft | 438 kts | 14° |
| 2026-05-07 03:29 | 22.34590 | 114.06931 | 31238 ft | 435 kts | 14° |
| 2026-05-07 03:30 | 22.37476 | 114.07902 | 30760 ft | 433 kts | 13° |
| 2026-05-07 03:30 | 22.40352 | 114.08844 | 30302 ft | 432 kts | 13° |
| 2026-05-07 03:30 | 22.43233 | 114.09769 | 29794 ft | 431 kts | 13° |
| 2026-05-07 03:30 | 22.46098 | 114.10682 | 29290 ft | 428 kts | 13° |
| 2026-05-07 03:31 | 22.48949 | 114.11591 | 28799 ft | 425 kts | 13° |
| 2026-05-07 03:31 | 22.51761 | 114.12356 | 28317 ft | 418 kts | 4° |
| 2026-05-07 03:31 | 22.54628 | 114.12403 | 27868 ft | 408 kts | 350° |
| 2026-05-07 03:31 | 22.57374 | 114.11776 | 27407 ft | 400 kts | 337° |
| 2026-05-07 03:32 | 22.59929 | 114.10559 | 26969 ft | 394 kts | 331° |
| 2026-05-07 03:32 | 22.62360 | 114.09283 | 26513 ft | 392 kts | 331° |
| 2026-05-07 03:32 | 22.64808 | 114.07988 | 26071 ft | 390 kts | 331° |
| 2026-05-07 03:32 | 22.67251 | 114.06705 | 25622 ft | 389 kts | 331° |
| 2026-05-07 03:33 | 22.69684 | 114.05440 | 25166 ft | 387 kts | 332° |
| 2026-05-07 03:33 | 22.72112 | 114.04186 | 24717 ft | 387 kts | 332° |
| 2026-05-07 03:33 | 22.74536 | 114.02939 | 24269 ft | 385 kts | 332° |
| 2026-05-07 03:33 | 22.76139 | 114.02116 | 23972 ft | 385 kts | 332° |
| 2026-05-07 03:34 | 22.78561 | 114.00873 | 23519 ft | 384 kts | 332° |
| 2026-05-07 03:34 | 22.80976 | 113.99634 | 23003 ft | 383 kts | 332° |
| 2026-05-07 03:34 | 22.83375 | 113.98402 | 22538 ft | 381 kts | 332° |
| 2026-05-07 03:34 | 22.85762 | 113.97176 | 22091 ft | 378 kts | 332° |
| 2026-05-07 03:35 | 22.88129 | 113.95959 | 21653 ft | 375 kts | 332° |
| 2026-05-07 03:35 | 22.90572 | 113.94978 | 21208 ft | 378 kts | 346° |
| 2026-05-07 03:35 | 22.93167 | 113.94570 | 20811 ft | 376 kts | 350° |
| 2026-05-07 03:35 | 22.95770 | 113.94255 | 20375 ft | 374 kts | 351° |
| 2026-05-07 03:36 | 22.98353 | 113.93946 | 19950 ft | 372 kts | 350° |
| 2026-05-07 03:36 | 23.00921 | 113.93621 | 19514 ft | 371 kts | 350° |
| 2026-05-07 03:36 | 23.03472 | 113.93281 | 19094 ft | 370 kts | 349° |
| 2026-05-07 03:36 | 23.06032 | 113.92929 | 18669 ft | 369 kts | 349° |
| 2026-05-07 03:37 | 23.08584 | 113.92575 | 18247 ft | 368 kts | 349° |
| 2026-05-07 03:37 | 23.11127 | 113.92221 | 17753 ft | 368 kts | 349° |
| 2026-05-07 03:37 | 23.13658 | 113.91873 | 17311 ft | 365 kts | 349° |
| 2026-05-07 03:37 | 23.16163 | 113.91489 | 16877 ft | 361 kts | 343° |
| 2026-05-07 03:38 | 23.18423 | 113.90429 | 16463 ft | 351 kts | 322° |
| 2026-05-07 03:38 | 23.20133 | 113.88606 | 16067 ft | 342 kts | 302° |
| 2026-05-07 03:38 | 23.21211 | 113.86331 | 15676 ft | 337 kts | 287° |
| 2026-05-07 03:38 | 23.21624 | 113.83876 | 15272 ft | 333 kts | 273° |
| 2026-05-07 03:39 | 23.21737 | 113.81337 | 14858 ft | 332 kts | 271° |
| 2026-05-07 03:39 | 23.21798 | 113.78836 | 14449 ft | 331 kts | 271° |
| 2026-05-07 03:39 | 23.21861 | 113.76338 | 14047 ft | 330 kts | 271° |
| 2026-05-07 03:39 | 23.21938 | 113.73845 | 13620 ft | 329 kts | 271° |
| 2026-05-07 03:40 | 23.22027 | 113.71395 | 13200 ft | 327 kts | 271° |
| 2026-05-07 03:40 | 23.22120 | 113.68937 | 12792 ft | 325 kts | 271° |
| 2026-05-07 03:40 | 23.22214 | 113.66487 | 12385 ft | 323 kts | 271° |
| 2026-05-07 03:40 | 23.22305 | 113.64126 | 12009 ft | 320 kts | 271° |
| 2026-05-07 03:41 | 23.22396 | 113.61717 | 11630 ft | 318 kts | 271° |
| 2026-05-07 03:41 | 23.22487 | 113.59314 | 11176 ft | 318 kts | 271° |
| 2026-05-07 03:41 | 23.22576 | 113.56917 | 10782 ft | 317 kts | 271° |
| 2026-05-07 03:41 | 23.22666 | 113.54532 | 10506 ft | 312 kts | 271° |
| 2026-05-07 03:42 | 23.22753 | 113.52208 | 10338 ft | 304 kts | 271° |
| 2026-05-07 03:42 | 23.22838 | 113.49945 | 10212 ft | 295 kts | 271° |
| 2026-05-07 03:42 | 23.22920 | 113.47756 | 10100 ft | 286 kts | 271° |
| 2026-05-07 03:42 | 23.22999 | 113.45625 | 9972 ft | 278 kts | 271° |
| 2026-05-07 03:43 | 23.23074 | 113.43538 | 9683 ft | 275 kts | 271° |
| 2026-05-07 03:43 | 23.23029 | 113.41474 | 9378 ft | 272 kts | 257° |
| 2026-05-07 03:43 | 23.22255 | 113.39632 | 9090 ft | 269 kts | 232° |
| 2026-05-07 03:43 | 23.20875 | 113.38268 | 8802 ft | 269 kts | 213° |
| 2026-05-07 03:44 | 23.19137 | 113.37525 | 8610 ft | 267 kts | 197° |
| 2026-05-07 03:44 | 23.17354 | 113.37056 | 8480 ft | 260 kts | 196° |
| 2026-05-07 03:44 | 23.15616 | 113.36604 | 8351 ft | 253 kts | 196° |
| 2026-05-07 03:44 | 23.13932 | 113.36159 | 8236 ft | 246 kts | 196° |
| 2026-05-07 03:45 | 23.12313 | 113.35727 | 8137 ft | 238 kts | 196° |
| 2026-05-07 03:45 | 23.10740 | 113.35197 | 8019 ft | 230 kts | 212° |
| 2026-05-07 03:45 | 23.09609 | 113.34037 | 7711 ft | 231 kts | 240° |
| 2026-05-07 03:45 | 23.09078 | 113.32378 | 7312 ft | 238 kts | 263° |
| 2026-05-07 03:46 | 23.09063 | 113.30523 | 6758 ft | 247 kts | 271° |
| 2026-05-07 03:46 | 23.09159 | 113.28640 | 6208 ft | 253 kts | 272° |
| 2026-05-07 03:46 | 23.09403 | 113.26753 | 5621 ft | 261 kts | 288° |
| 2026-05-07 03:46 | 23.10379 | 113.25096 | 5043 ft | 264 kts | 316° |
| 2026-05-07 03:47 | 23.11892 | 113.24172 | 4712 ft | 256 kts | 344° |
| 2026-05-07 03:47 | 23.13625 | 113.24059 | 4402 ft | 246 kts | 7° |
| 2026-05-07 03:47 | 23.15268 | 113.24434 | 4113 ft | 236 kts | 14° |
| 2026-05-07 03:47 | 23.16801 | 113.24873 | 4024 ft | 222 kts | 14° |
| 2026-05-07 03:48 | 23.18282 | 113.25289 | 3766 ft | 218 kts | 14° |
| 2026-05-07 03:48 | 23.19739 | 113.25690 | 3513 ft | 214 kts | 14° |
| 2026-05-07 03:48 | 23.21178 | 113.26080 | 3271 ft | 213 kts | 14° |
| 2026-05-07 03:48 | 23.22616 | 113.26472 | 2983 ft | 213 kts | 14° |
| 2026-05-07 03:49 | 23.24056 | 113.26863 | 2711 ft | 213 kts | 15° |
| 2026-05-07 03:49 | 23.25497 | 113.27253 | 2428 ft | 212 kts | 15° |
| 2026-05-07 03:49 | 23.26924 | 113.27642 | 2140 ft | 207 kts | 14° |
| 2026-05-07 03:49 | 23.28283 | 113.28011 | 1889 ft | 195 kts | 14° |
| 2026-05-07 03:50 | 23.29568 | 113.28359 | 1635 ft | 186 kts | 15° |
| 2026-05-07 03:50 | 23.30791 | 113.28692 | 1385 ft | 176 kts | 15° |
| 2026-05-07 03:50 | 23.31929 | 113.29001 | 1197 ft | 164 kts | 15° |
| 2026-05-07 03:50 | 23.33022 | 113.29299 | 994 ft | 162 kts | 15° |
| 2026-05-07 03:51 | 23.33245 | 113.29359 | 966 ft | 162 kts | 14° |
| 2026-05-07 03:52 | 23.34088 | 113.29588 | 784 ft | 164 kts | 14° |
| 2026-05-07 03:53 | 23.35192 | 113.29888 | 587 ft | 163 kts | 15° |
| 2026-05-07 03:53 | 23.36266 | 113.30180 | 338 ft | 155 kts | 14° |
| 2026-05-07 03:53 | 23.37307 | 113.30466 | 167 ft | 154 kts | 14° |
| 2026-05-07 03:53 | 23.38331 | 113.30737 | 58 ft | 142 kts | 14° |
| 2026-05-07 03:54 | 23.39089 | 113.30944 | 56 ft | 82 kts | 14° |
| 2026-05-07 03:54 | 23.39475 | 113.31047 | 54 ft | 39 kts | 13° |
| 2026-05-07 03:54 | 23.39665 | 113.31054 | 52 ft | 16 kts | 347° |
| 2026-05-07 03:54 | 23.39765 | 113.31027 | 53 ft | 14 kts | 346° |
| 2026-05-07 03:55 | 23.39860 | 113.31001 | 55 ft | 14 kts | 346° |
| 2026-05-07 03:55 | 23.39940 | 113.30985 | 53 ft | 7 kts | 356° |
| 2026-05-07 03:55 | 23.39982 | 113.30964 | 57 ft | 7 kts | 307° |
| 2026-05-07 03:55 | 23.39996 | 113.30915 | 53 ft | 6 kts | 297° |
| 2026-05-07 03:56 | 23.40033 | 113.30898 | 55 ft | 6 kts | 5° |
| 2026-05-07 03:56 | 23.40075 | 113.30909 | 52 ft | 6 kts | 15° |
| 2026-05-07 03:56 | 23.40115 | 113.30920 | 53 ft | 6 kts | 11° |
| 2026-05-07 03:56 | 23.40156 | 113.30929 | 53 ft | 6 kts | 11° |
| 2026-05-07 03:57 | 23.40193 | 113.30919 | 54 ft | 6 kts | 318° |
| 2026-05-07 03:57 | 23.40209 | 113.30879 | 57 ft | 6 kts | 287° |
| 2026-05-07 03:57 | 23.40221 | 113.30838 | 54 ft | 6 kts | 287° |
| 2026-05-07 03:57 | 23.40232 | 113.30797 | 51 ft | 6 kts | 286° |
| 2026-05-07 03:58 | 23.40242 | 113.30755 | 57 ft | 6 kts | 284° |
| 2026-05-07 03:58 | 23.40252 | 113.30711 | 57 ft | 6 kts | 283° |
| 2026-05-07 03:58 | 23.40261 | 113.30667 | 52 ft | 4 kts | 278° |
| 2026-05-07 03:58 | 23.40250 | 113.30653 | 57 ft | 3 kts | 201° |
| 2026-05-07 03:59 | 23.40231 | 113.30647 | 56 ft | 3 kts | 194° |
| 2026-05-07 03:59 | 23.40217 | 113.30644 | 51 ft | 2 kts | 194° |
| 2026-05-07 03:59 | 23.40212 | 113.30642 | 53 ft | 0 kts | 194° |